Early, IA (50535)

4:54 AM CDT on July 24, 2016 (GMT -0500)
Storm Lake Municipal | | Change Station

Elev 1490 ft 42.60 °N, 95.24 °W | Updated 19 minutes ago

Clear
Clear
77 °F
Feels Like 77 °F
N
10
Wind Variable Wind from NNW

Today
High -- | Low -- °F
--% Chance of Precip.
Yesterday
High -- | Low -- °F
Precip. -- in
Pressure 29.87 in
Visibility 10.0 miles
Clouds Clear
Dew Point 75 °F
Humidity 94%
Rainfall 0.00 in
Snow Depth Not available.
6:05 AM 8:47 PM
Waning Gibbous, 77% visible
METAR KSLB 240935Z AUTO 34009KT 10SM CLR 25/24 A2987 RMK AO2
Pressure 29.87 in
Visibility 10.0 miles
Clouds Clear
Dew Point 75 °F
Humidity 94%
Rainfall 0.00 in
Snow Depth Not available.
6:05 AM 8:47 PM
Waning Gibbous, 77% visible
METAR KSLB 240935Z AUTO 34009KT 10SM CLR 25/24 A2987 RMK AO2

10-Day Weather Forecast

Almanac

Astronomy

Jul. 24, 2016 Rise Set
Actual Time
Civil Twilight
Nautical Twilight
Astronomical Twilight
Moon
Length of Visible Light
Length of Day
Tomorrow will be .
, % of the Moon is Illuminated

Today's Extremes

State Highs State Lows

Community

WunderPhotos

Upload Photos

1,927,042 photos uploaded!

WunderBlog® & News

Nearby

Air Quality

  Air Quality AQ Index Pollutant
Not available.

Snow Depth

Station Depth Elevation

Earthquake Activity

City Distance Mag. Time & Date
Minimum magnitude displayed is 2.5.

Coastal Water Temperatures

Place Temperature

Stations

Nearby Weather Stations

Station Location Temp. Windchill Dew Point Humidity Wind Precip. Elev Updated Type
                   

Watches & Warnings

There are currently no watches in effect.